Hovedside
METAR-TAF:

METAR-TAF

Lufthavner :

Östersund-Frösön, Sverige

Åre Östersund lufthavn

breddegrad: 63-11N, lengdegrad: 014-30E, høyde over havet: 376 m

Gjeldene værobservasjon

Denne rapporten ble laget for 23 minutter siden, klokken 05:50 UTC
Vind 4 kt fra Sør
Temperatur -3°C
Luftfuktighet 74%
Trykk 1019 hPa
Sikt 10 km eller mer
ingen skyer under 1500 m og ingen bygeskyer

METAR: ESNZ 240550Z 19004KT CAVOK M03/M07 Q1019

Tid: 07:13 (06:13 UTC)

Varsel

Denne rapporten ble laget for 43 minutter siden, klokken 05:30 UTC
Varsel gyldig fra 24. klokken 06 UTC til 24. klokken 15 UTC
Vind 10 kt fra Vest-sørvest
Sikt 10 km eller mer
Få skyer i en høyde av 3000 ft
Blir
fra 24. klokken 08 UTC til 24. klokken 10 UTC
Sikt: 4000 m
i en høyde av 1400 ft
snø
Midlertidig
fra 24. klokken 10 UTC til 24. klokken 15 UTC
Sikt: 2000 m

TAF: ESNZ 240530Z 2406/2415 24010KT 9999 FEW030 BECMG 2408/2410 4000 SN VV014 TEMPO 2410/2415 2000

Værobservasjoner og værvarsel for over 4000 flyplasser (METAR- og TAF-rapporter).

Tilgjengelige stasjoner er representert av de røde og gule prikkene på kartet.

Hold musepekeren over prikken for å se navnet på stasjonen.

Klikk så for å se værobservasjoner og -varsler.

For å forandre kartet kan du klikke på den grønne knappen med svart kryss for å zoome inn, på den grønne knappen med strek for å zoome ut, eller på de grønne pilene for å se tilstøtende kart.


METAR-TAF: